La Suprema — IBIL — position and weather

sailwx.info

Track history (hours):
 
Tides and Currents Weather Stations Pressure Air Temp Water Temp Dewpoint Dewpoint Depression Visibility Wind Speed Wind Dir Waves Ship Positions

La Suprema

Last reported at 2015-Apr-21 17:33 UTC. Time now 2015-Apr-21 17:47 UTC.
Position N 44°25' E 008°55'.

Length 211 m; draft 7.2 m.

Type: Passenger vessel. MMSI: 247083700.

Date/timePositionNaut miles runAvg speedWind from/ knotsBaromVisibWave heightAir tempDewpointWater temp
2015-Apr-21 17:33N 44°25' E 008°55'3 3.2
2015-Apr-21 16:34N 44°22' E 008°58'2524.9
2015-Apr-21 15:34N 44°01' E 009°16'2322.9
2015-Apr-21 14:33N 43°41' E 009°31'2222.3
2015-Apr-21 13:33N 43°22' E 009°47'2321.8
2015-Apr-21 12:29N 43°00' E 010°00'2021.9
2015-Apr-21 11:33N 42°41' E 010°07'28321.8
2015-Apr-20 22:33N 38°33' E 013°08'2221.7
2015-Apr-20 21:33N 38°15' E 013°23'7 6.8
2015-Apr-20 20:31N 38°08' E 013°22'0 0.0
2015-Apr-20 19:33N 38°08' E 013°22'0 0.0
2015-Apr-20 18:33N 38°08' E 013°22'0 0.0
2015-Apr-20 17:32N 38°08' E 013°22'0 0.0
2015-Apr-20 16:32N 38°08' E 013°22'0 0.0
2015-Apr-20 15:31N 38°08' E 013°22'0 0.0
2015-Apr-20 14:31N 38°08' E 013°22'0 0.0
2015-Apr-20 13:31N 38°08' E 013°22'0 0.0
2015-Apr-20 12:33N 38°08' E 013°22'0 0.0
2015-Apr-20 11:33N 38°08' E 013°22'0 0.0
2015-Apr-20 10:32N 38°08' E 013°22'0 0.0
2015-Apr-20 09:32N 38°08' E 013°22'0 0.0
2015-Apr-20 08:31N 38°08' E 013°22'0 0.0
2015-Apr-20 07:31N 38°08' E 013°22'0 0.0
2015-Apr-20 06:34N 38°08' E 013°22'0 0.0
2015-Apr-20 05:33N 38°08' E 013°22'0 0.0
2015-Apr-20 04:30N 38°08' E 013°22'0 0.0
2015-Apr-20 03:32N 38°08' E 013°22'0 0.0
2015-Apr-20 02:32N 38°08' E 013°22'0 0.0
2015-Apr-20 01:31N 38°08' E 013°22'0 0.0
2015-Apr-20 00:31N 38°08' E 013°22'0 0.0
2015-Apr-19 23:33N 38°08' E 013°22'0 0.0
2015-Apr-19 22:30N 38°08' E 013°22'0 0.0
2015-Apr-19 21:33N 38°08' E 013°22'0 0.0
2015-Apr-19 20:32N 38°08' E 013°22'0 0.0
2015-Apr-19 19:32N 38°08' E 013°22'0 0.0
2015-Apr-19 18:31N 38°08' E 013°22'0 0.0
2015-Apr-19 17:31N 38°08' E 013°22'4 4.0
2015-Apr-19 16:33N 38°11' E 013°24'2423.9
2015-Apr-19 15:33N 38°32' E 013°08'28922.2
2015-Apr-19 02:31N 42°38' E 009°49'3020.9
2015-Apr-19 01:04N 43°06' E 009°34'1120.9
2015-Apr-19 00:33N 43°16' E 009°29'2121.0
2015-Apr-18 23:34N 43°36' E 009°19'2121.1
2015-Apr-18 22:34N 43°56' E 009°09'2121.4
2015-Apr-18 21:34N 44°16' E 008°59'9 8.9
2015-Apr-18 20:33N 44°25' E 008°55'0 0.0
2015-Apr-18 19:33N 44°25' E 008°55'0 0.0
2015-Apr-18 18:33N 44°25' E 008°55'0 0.0
2015-Apr-18 17:33N 44°25' E 008°55'2 2.5
2015-Apr-18 16:33N 44°23' E 008°57'2424.0
2015-Apr-18 15:34N 44°02' E 009°14'2525.4
2015-Apr-18 14:33N 43°40' E 009°32'2524.6
2015-Apr-18 13:34N 43°19' E 009°49'31422.1
2015-Apr-17 23:21N 38°41' E 013°02'1721.3
2015-Apr-17 22:33N 38°26' E 013°14'2020.1
2015-Apr-17 21:33N 38°08' E 013°25'2 2.1
2015-Apr-17 20:33N 38°08' E 013°22'0 0.0
2015-Apr-17 19:33N 38°08' E 013°22'0 0.0
2015-Apr-17 18:33N 38°08' E 013°22'0 0.0
2015-Apr-17 17:33N 38°08' E 013°22'5 4.7
2015-Apr-17 16:33N 38°12' E 013°24'2424.2
2015-Apr-17 15:33N 38°33' E 013°08'15324.1
2015-Apr-17 09:11N 40°43' E 011°22'1523.9
2015-Apr-17 08:33N 40°56' E 011°11'2120.3
2015-Apr-17 07:32N 41°13' E 010°57'10220.4
2015-Apr-17 02:33N 42°41' E 009°48'2020.0
2015-Apr-17 01:33N 42°60' E 009°39'2020.3
2015-Apr-17 00:34N 43°19' E 009°28'2020.3
2015-Apr-16 23:34N 43°38' E 009°19'2120.6
2015-Apr-16 22:34N 43°57' E 009°09'2121.1
2015-Apr-16 21:33N 44°17' E 008°60'8 7.6
2015-Apr-16 20:28N 44°25' E 008°55'0 0.0
2015-Apr-16 19:28N 44°25' E 008°55'0 0.0
2015-Apr-16 18:33N 44°25' E 008°55'0 0.0
2015-Apr-16 17:33N 44°25' E 008°55'3 2.7
2015-Apr-16 16:33N 44°22' E 008°57'2424.1
2015-Apr-16 15:34N 44°02' E 009°15'2525.4
2015-Apr-16 14:34N 43°40' E 009°32'2524.7
2015-Apr-16 13:34N 43°18' E 009°49'2424.0
2015-Apr-16 12:33N 42°56' E 010°00'2723.8
2015-Apr-16 11:26N 42°32' E 010°17'2121.8
2015-Apr-16 10:29N 42°15' E 010°32'2321.7
2015-Apr-16 09:25N 41°54' E 010°47'1921.4
2015-Apr-16 08:31N 41°38' E 010°60'2121.7
2015-Apr-16 07:32N 41°19' E 011°12'2221.5
2015-Apr-16 06:31N 40°59' E 011°26'2121.6
2015-Apr-16 05:33N 40°41' E 011°39'3021.4
2015-Apr-16 04:10N 40°14' E 011°58'1321.2
2015-Apr-16 03:33N 40°03' E 012°05'2221.4
2015-Apr-16 02:32N 39°44' E 012°19'7121.4
2015-Apr-15 23:15N 38°41' E 013°02'1521.3
2015-Apr-15 22:33N 38°29' E 013°11'2221.6
2015-Apr-15 21:33N 38°11' E 013°26'4 3.7
2015-Apr-15 20:22N 38°08' E 013°22'0 0.0
2015-Apr-15 19:31N 38°08' E 013°22'0 0.0
2015-Apr-15 18:28N 38°08' E 013°22'0 0.0
2015-Apr-15 17:30N 38°08' E 013°22'3 3.0
2015-Apr-15 16:34N 38°10' E 013°24'2424.1
2015-Apr-15 15:33N 38°31' E 013°09'2524.9
2015-Apr-15 14:33N 38°52' E 012°52'2424.5
2015-Apr-15 13:33N 39°13' E 012°35'2424.4
2015-Apr-15 12:33N 39°33' E 012°18'2524.4
2015-Apr-15 11:33N 39°54' E 012°01'8821.6
2015-Apr-15 07:29N 41°09' E 010°59'6721.4
2015-Apr-15 04:21N 42°05' E 010°11'1921.3
2015-Apr-15 03:29N 42°21' E 009°58'2021.3
2015-Apr-15 02:32N 42°40' E 009°48'2020.8
2015-Apr-15 01:34N 42°59' E 009°39'2121.3
2015-Apr-15 00:33N 43°19' E 009°29'2121.3
2015-Apr-14 23:34N 43°39' E 009°18'2121.0
2015-Apr-14 22:33N 43°59' E 009°08'2121.6
2015-Apr-14 21:33N 44°19' E 008°59'6 6.1
2015-Apr-14 20:33N 44°25' E 008°55'0 0.0
2015-Apr-14 19:32N 44°25' E 008°55'0 0.0
2015-Apr-14 18:32N 44°25' E 008°55'0 0.0
2015-Apr-14 17:28N 44°25' E 008°55'2 1.9
2015-Apr-14 16:33N 44°23' E 008°57'2323.0
2015-Apr-14 15:34N 44°04' E 009°13'2524.9
2015-Apr-14 14:34N 43°42' E 009°30'2524.7
2015-Apr-14 13:34N 43°21' E 009°47'2423.8
2015-Apr-14 12:33N 42°59' E 009°60'2623.5
2015-Apr-14 11:26N 42°35' E 010°15'15621.3
2015-Apr-14 04:08N 40°18' E 011°55'11821.2
2015-Apr-13 22:34N 38°34' E 013°07'2121.4
2015-Apr-13 21:34N 38°16' E 013°22'8 8.2
2015-Apr-13 20:33N 38°08' E 013°22'0 0.0
2015-Apr-13 19:33N 38°08' E 013°22'0 0.0
2015-Apr-13 18:32N 38°08' E 013°22'0 0.0
2015-Apr-13 17:32N 38°08' E 013°22'0 0.0
2015-Apr-13 16:31N 38°08' E 013°22'0 0.0
2015-Apr-13 15:28N 38°08' E 013°22'0 0.0
2015-Apr-13 14:31N 38°08' E 013°22'0 0.0
2015-Apr-13 13:33N 38°08' E 013°22'0 0.0
2015-Apr-13 12:33N 38°08' E 013°22'0 0.0
2015-Apr-13 11:32N 38°08' E 013°22'0 0.0
2015-Apr-13 10:32N 38°08' E 013°22'0 0.0
2015-Apr-13 09:31N 38°08' E 013°22'0 0.0
2015-Apr-13 08:31N 38°08' E 013°22'0 0.0
2015-Apr-13 07:34N 38°08' E 013°22'0 0.0
2015-Apr-13 06:33N 38°08' E 013°22'0 0.0
2015-Apr-13 05:33N 38°08' E 013°22'0 0.0
2015-Apr-13 04:32N 38°08' E 013°22'0 0.0
2015-Apr-13 03:32N 38°08' E 013°22'0 0.0
2015-Apr-13 02:31N 38°08' E 013°22'0 0.0
2015-Apr-13 01:31N 38°08' E 013°22'0 0.0
2015-Apr-13 00:34N 38°08' E 013°22'0 0.0
2015-Apr-12 23:33N 38°08' E 013°22'0 0.0
2015-Apr-12 22:33N 38°08' E 013°22'0 0.0
2015-Apr-12 21:32N 38°08' E 013°22'0 0.0
2015-Apr-12 20:32N 38°08' E 013°22'0 0.0
2015-Apr-12 19:25N 38°08' E 013°22'0 0.0
2015-Apr-12 18:31N 38°08' E 013°22'0 0.0
2015-Apr-12 17:27N 38°08' E 013°22'5 5.1
2015-Apr-12 16:33N 38°12' E 013°23'31021.8
2015-Apr-12 02:23N 42°36' E 009°51'4021.4
2015-Apr-12 00:31N 43°14' E 009°33'2121.8
2015-Apr-11 23:33N 43°33' E 009°21'2121.3
2015-Apr-11 22:33N 43°53' E 009°11'2221.9
2015-Apr-11 21:33N 44°13' E 009°01'12 9.8
2015-Apr-11 20:21N 44°25' E 008°55'0 0.0
2015-Apr-11 19:32N 44°25' E 008°55'0 0.0
2015-Apr-11 18:20N 44°25' E 008°55'  
Track history (hours):
 
Tides and Currents Weather Stations Pressure Air Temp Water Temp Dewpoint Dewpoint Depression Visibility Wind Speed Wind Dir Waves Ship Positions

La Suprema

Last reported at 2015-Apr-21 17:33 UTC. Time now 2015-Apr-21 17:47 UTC.
Position N 44°25' E 008°55'.

Length 211 m; draft 7.2 m.

Type: Passenger vessel. MMSI: 247083700.

Date/timePositionNaut miles runAvg speedWind from/ knotsBaromVisibWave heightAir tempDewpointWater temp
2015-Apr-21 17:33N 44°25' E 008°55'3 3.2
2015-Apr-21 16:34N 44°22' E 008°58'2524.9
2015-Apr-21 15:34N 44°01' E 009°16'2322.9
2015-Apr-21 14:33N 43°41' E 009°31'2222.3
2015-Apr-21 13:33N 43°22' E 009°47'2321.8
2015-Apr-21 12:29N 43°00' E 010°00'2021.9
2015-Apr-21 11:33N 42°41' E 010°07'28321.8
2015-Apr-20 22:33N 38°33' E 013°08'2221.7
2015-Apr-20 21:33N 38°15' E 013°23'7 6.8
2015-Apr-20 20:31N 38°08' E 013°22'0 0.0
2015-Apr-20 19:33N 38°08' E 013°22'0 0.0
2015-Apr-20 18:33N 38°08' E 013°22'0 0.0
2015-Apr-20 17:32N 38°08' E 013°22'0 0.0
2015-Apr-20 16:32N 38°08' E 013°22'0 0.0
2015-Apr-20 15:31N 38°08' E 013°22'0 0.0
2015-Apr-20 14:31N 38°08' E 013°22'0 0.0
2015-Apr-20 13:31N 38°08' E 013°22'0 0.0
2015-Apr-20 12:33N 38°08' E 013°22'0 0.0
2015-Apr-20 11:33N 38°08' E 013°22'0 0.0
2015-Apr-20 10:32N 38°08' E 013°22'0 0.0
2015-Apr-20 09:32N 38°08' E 013°22'0 0.0
2015-Apr-20 08:31N 38°08' E 013°22'0 0.0
2015-Apr-20 07:31N 38°08' E 013°22'0 0.0
2015-Apr-20 06:34N 38°08' E 013°22'0 0.0
2015-Apr-20 05:33N 38°08' E 013°22'0 0.0
2015-Apr-20 04:30N 38°08' E 013°22'0 0.0
2015-Apr-20 03:32N 38°08' E 013°22'0 0.0
2015-Apr-20 02:32N 38°08' E 013°22'0 0.0
2015-Apr-20 01:31N 38°08' E 013°22'0 0.0
2015-Apr-20 00:31N 38°08' E 013°22'0 0.0
2015-Apr-19 23:33N 38°08' E 013°22'0 0.0
2015-Apr-19 22:30N 38°08' E 013°22'0 0.0
2015-Apr-19 21:33N 38°08' E 013°22'0 0.0
2015-Apr-19 20:32N 38°08' E 013°22'0 0.0
2015-Apr-19 19:32N 38°08' E 013°22'0 0.0
2015-Apr-19 18:31N 38°08' E 013°22'0 0.0
2015-Apr-19 17:31N 38°08' E 013°22'4 4.0
2015-Apr-19 16:33N 38°11' E 013°24'2423.9
2015-Apr-19 15:33N 38°32' E 013°08'28922.2
2015-Apr-19 02:31N 42°38' E 009°49'3020.9
2015-Apr-19 01:04N 43°06' E 009°34'1120.9
2015-Apr-19 00:33N 43°16' E 009°29'2121.0
2015-Apr-18 23:34N 43°36' E 009°19'2121.1
2015-Apr-18 22:34N 43°56' E 009°09'2121.4
2015-Apr-18 21:34N 44°16' E 008°59'9 8.9
2015-Apr-18 20:33N 44°25' E 008°55'0 0.0
2015-Apr-18 19:33N 44°25' E 008°55'0 0.0
2015-Apr-18 18:33N 44°25' E 008°55'0 0.0
2015-Apr-18 17:33N 44°25' E 008°55'2 2.5
2015-Apr-18 16:33N 44°23' E 008°57'2424.0
2015-Apr-18 15:34N 44°02' E 009°14'2525.4
2015-Apr-18 14:33N 43°40' E 009°32'2524.6
2015-Apr-18 13:34N 43°19' E 009°49'31422.1
2015-Apr-17 23:21N 38°41' E 013°02'1721.3
2015-Apr-17 22:33N 38°26' E 013°14'2020.1
2015-Apr-17 21:33N 38°08' E 013°25'2 2.1
2015-Apr-17 20:33N 38°08' E 013°22'0 0.0
2015-Apr-17 19:33N 38°08' E 013°22'0 0.0
2015-Apr-17 18:33N 38°08' E 013°22'0 0.0
2015-Apr-17 17:33N 38°08' E 013°22'5 4.7
2015-Apr-17 16:33N 38°12' E 013°24'2424.2
2015-Apr-17 15:33N 38°33' E 013°08'15324.1
2015-Apr-17 09:11N 40°43' E 011°22'1523.9
2015-Apr-17 08:33N 40°56' E 011°11'2120.3
2015-Apr-17 07:32N 41°13' E 010°57'10220.4
2015-Apr-17 02:33N 42°41' E 009°48'2020.0
2015-Apr-17 01:33N 42°60' E 009°39'2020.3
2015-Apr-17 00:34N 43°19' E 009°28'2020.3
2015-Apr-16 23:34N 43°38' E 009°19'2120.6
2015-Apr-16 22:34N 43°57' E 009°09'2121.1
2015-Apr-16 21:33N 44°17' E 008°60'8 7.6
2015-Apr-16 20:28N 44°25' E 008°55'0 0.0
2015-Apr-16 19:28N 44°25' E 008°55'0 0.0
2015-Apr-16 18:33N 44°25' E 008°55'0 0.0
2015-Apr-16 17:33N 44°25' E 008°55'3 2.7
2015-Apr-16 16:33N 44°22' E 008°57'2424.1
2015-Apr-16 15:34N 44°02' E 009°15'2525.4
2015-Apr-16 14:34N 43°40' E 009°32'2524.7
2015-Apr-16 13:34N 43°18' E 009°49'2424.0
2015-Apr-16 12:33N 42°56' E 010°00'2723.8
2015-Apr-16 11:26N 42°32' E 010°17'2121.8
2015-Apr-16 10:29N 42°15' E 010°32'2321.7
2015-Apr-16 09:25N 41°54' E 010°47'1921.4
2015-Apr-16 08:31N 41°38' E 010°60'2121.7
2015-Apr-16 07:32N 41°19' E 011°12'2221.5
2015-Apr-16 06:31N 40°59' E 011°26'2121.6
2015-Apr-16 05:33N 40°41' E 011°39'3021.4
2015-Apr-16 04:10N 40°14' E 011°58'1321.2
2015-Apr-16 03:33N 40°03' E 012°05'2221.4
2015-Apr-16 02:32N 39°44' E 012°19'7121.4
2015-Apr-15 23:15N 38°41' E 013°02'1521.3
2015-Apr-15 22:33N 38°29' E 013°11'2221.6
2015-Apr-15 21:33N 38°11' E 013°26'4 3.7
2015-Apr-15 20:22N 38°08' E 013°22'0 0.0
2015-Apr-15 19:31N 38°08' E 013°22'0 0.0
2015-Apr-15 18:28N 38°08' E 013°22'0 0.0
2015-Apr-15 17:30N 38°08' E 013°22'3 3.0
2015-Apr-15 16:34N 38°10' E 013°24'2424.1
2015-Apr-15 15:33N 38°31' E 013°09'2524.9
2015-Apr-15 14:33N 38°52' E 012°52'2424.5
2015-Apr-15 13:33N 39°13' E 012°35'2424.4
2015-Apr-15 12:33N 39°33' E 012°18'2524.4
2015-Apr-15 11:33N 39°54' E 012°01'8821.6
2015-Apr-15 07:29N 41°09' E 010°59'6721.4
2015-Apr-15 04:21N 42°05' E 010°11'1921.3
2015-Apr-15 03:29N 42°21' E 009°58'2021.3
2015-Apr-15 02:32N 42°40' E 009°48'2020.8
2015-Apr-15 01:34N 42°59' E 009°39'2121.3
2015-Apr-15 00:33N 43°19' E 009°29'2121.3
2015-Apr-14 23:34N 43°39' E 009°18'2121.0
2015-Apr-14 22:33N 43°59' E 009°08'2121.6
2015-Apr-14 21:33N 44°19' E 008°59'6 6.1
2015-Apr-14 20:33N 44°25' E 008°55'0 0.0
2015-Apr-14 19:32N 44°25' E 008°55'0 0.0
2015-Apr-14 18:32N 44°25' E 008°55'0 0.0
2015-Apr-14 17:28N 44°25' E 008°55'2 1.9
2015-Apr-14 16:33N 44°23' E 008°57'2323.0
2015-Apr-14 15:34N 44°04' E 009°13'2524.9
2015-Apr-14 14:34N 43°42' E 009°30'2524.7
2015-Apr-14 13:34N 43°21' E 009°47'2423.8
2015-Apr-14 12:33N 42°59' E 009°60'2623.5
2015-Apr-14 11:26N 42°35' E 010°15'15621.3
2015-Apr-14 04:08N 40°18' E 011°55'11821.2
2015-Apr-13 22:34N 38°34' E 013°07'2121.4
2015-Apr-13 21:34N 38°16' E 013°22'8 8.2
2015-Apr-13 20:33N 38°08' E 013°22'0 0.0
2015-Apr-13 19:33N 38°08' E 013°22'0 0.0
2015-Apr-13 18:32N 38°08' E 013°22'0 0.0
2015-Apr-13 17:32N 38°08' E 013°22'0 0.0
2015-Apr-13 16:31N 38°08' E 013°22'0 0.0
2015-Apr-13 15:28N 38°08' E 013°22'0 0.0
2015-Apr-13 14:31N 38°08' E 013°22'0 0.0
2015-Apr-13 13:33N 38°08' E 013°22'0 0.0
2015-Apr-13 12:33N 38°08' E 013°22'0 0.0
2015-Apr-13 11:32N 38°08' E 013°22'0 0.0
2015-Apr-13 10:32N 38°08' E 013°22'0 0.0
2015-Apr-13 09:31N 38°08' E 013°22'0 0.0
2015-Apr-13 08:31N 38°08' E 013°22'0 0.0
2015-Apr-13 07:34N 38°08' E 013°22'0 0.0
2015-Apr-13 06:33N 38°08' E 013°22'0 0.0
2015-Apr-13 05:33N 38°08' E 013°22'0 0.0
2015-Apr-13 04:32N 38°08' E 013°22'0 0.0
2015-Apr-13 03:32N 38°08' E 013°22'0 0.0
2015-Apr-13 02:31N 38°08' E 013°22'0 0.0
2015-Apr-13 01:31N 38°08' E 013°22'0 0.0
2015-Apr-13 00:34N 38°08' E 013°22'0 0.0
2015-Apr-12 23:33N 38°08' E 013°22'0 0.0
2015-Apr-12 22:33N 38°08' E 013°22'0 0.0
2015-Apr-12 21:32N 38°08' E 013°22'0 0.0
2015-Apr-12 20:32N 38°08' E 013°22'0 0.0
2015-Apr-12 19:25N 38°08' E 013°22'0 0.0
2015-Apr-12 18:31N 38°08' E 013°22'0 0.0
2015-Apr-12 17:27N 38°08' E 013°22'5 5.1
2015-Apr-12 16:33N 38°12' E 013°23'31021.8
2015-Apr-12 02:23N 42°36' E 009°51'4021.4
2015-Apr-12 00:31N 43°14' E 009°33'2121.8
2015-Apr-11 23:33N 43°33' E 009°21'2121.3
2015-Apr-11 22:33N 43°53' E 009°11'2221.9
2015-Apr-11 21:33N 44°13' E 009°01'12 9.8
2015-Apr-11 20:21N 44°25' E 008°55'0 0.0
2015-Apr-11 19:32N 44°25' E 008°55'0 0.0
2015-Apr-11 18:20N 44°25' E 008°55'  

Dump ship's entire track history